sensor_id;sensor_type;location;lat;lon;timestamp;P1;durP1;ratioP1;P2;durP2;ratioP2
19828;SDS011;10075;50.924;4.396;2023-04-06T00:00:34;25.70;;;12.00;;
19828;SDS011;10075;50.924;4.396;2023-04-06T00:03:01;22.33;;;11.40;;
19828;SDS011;10075;50.924;4.396;2023-04-06T00:05:28;18.07;;;10.47;;
19828;SDS011;10075;50.924;4.396;2023-04-06T00:07:56;19.10;;;11.07;;
19828;SDS011;10075;50.924;4.396;2023-04-06T00:10:24;20.07;;;10.97;;
19828;SDS011;10075;50.924;4.396;2023-04-06T00:12:51;19.57;;;10.77;;
19828;SDS011;10075;50.924;4.396;2023-04-06T00:15:18;19.30;;;10.83;;
19828;SDS011;10075;50.924;4.396;2023-04-06T00:17:47;18.77;;;11.33;;
19828;SDS011;10075;50.924;4.396;2023-04-06T00:20:14;18.77;;;10.90;;
19828;SDS011;10075;50.924;4.396;2023-04-06T00:22:41;20.53;;;10.73;;
19828;SDS011;10075;50.924;4.396;2023-04-06T00:25:10;16.57;;;9.87;;
19828;SDS011;10075;50.924;4.396;2023-04-06T00:27:37;17.90;;;10.37;;
19828;SDS011;10075;50.924;4.396;2023-04-06T00:30:05;18.40;;;10.27;;
19828;SDS011;10075;50.924;4.396;2023-04-06T00:32:33;17.47;;;10.37;;
19828;SDS011;10075;50.924;4.396;2023-04-06T00:35:03;18.33;;;10.57;;
19828;SDS011;10075;50.924;4.396;2023-04-06T00:37:31;19.53;;;10.23;;
19828;SDS011;10075;50.924;4.396;2023-04-06T00:39:58;19.27;;;10.27;;
19828;SDS011;10075;50.924;4.396;2023-04-06T00:42:25;18.77;;;10.57;;
19828;SDS011;10075;50.924;4.396;2023-04-06T00:44:52;16.83;;;10.13;;
19828;SDS011;10075;50.924;4.396;2023-04-06T00:47:19;18.03;;;10.07;;
19828;SDS011;10075;50.924;4.396;2023-04-06T00:49:47;19.83;;;10.67;;
19828;SDS011;10075;50.924;4.396;2023-04-06T00:52:15;17.20;;;10.27;;
19828;SDS011;10075;50.924;4.396;2023-04-06T00:54:43;18.00;;;10.63;;
19828;SDS011;10075;50.924;4.396;2023-04-06T00:57:11;19.00;;;10.50;;
19828;SDS011;10075;50.924;4.396;2023-04-06T00:59:38;19.27;;;10.33;;
19828;SDS011;10075;50.924;4.396;2023-04-06T01:02:05;18.17;;;10.40;;
19828;SDS011;10075;50.924;4.396;2023-04-06T01:04:33;17.57;;;9.90;;
19828;SDS011;10075;50.924;4.396;2023-04-06T01:07:00;16.90;;;9.73;;
19828;SDS011;10075;50.924;4.396;2023-04-06T01:09:29;18.40;;;10.57;;
19828;SDS011;10075;50.924;4.396;2023-04-06T01:11:56;15.80;;;10.47;;
19828;SDS011;10075;50.924;4.396;2023-04-06T01:14:23;20.63;;;10.40;;
19828;SDS011;10075;50.924;4.396;2023-04-06T01:16:51;19.70;;;10.45;;
19828;SDS011;10075;50.924;4.396;2023-04-06T01:19:18;19.33;;;10.90;;
19828;SDS011;10075;50.924;4.396;2023-04-06T01:21:46;18.37;;;10.83;;
19828;SDS011;10075;50.924;4.396;2023-04-06T01:24:15;22.47;;;11.60;;
19828;SDS011;10075;50.924;4.396;2023-04-06T01:26:42;20.13;;;10.57;;
19828;SDS011;10075;50.924;4.396;2023-04-06T01:29:10;27.47;;;10.93;;
19828;SDS011;10075;50.924;4.396;2023-04-06T01:31:37;17.43;;;10.63;;
19828;SDS011;10075;50.924;4.396;2023-04-06T01:34:05;22.90;;;10.77;;
19828;SDS011;10075;50.924;4.396;2023-04-06T01:36:32;18.57;;;10.97;;
19828;SDS011;10075;50.924;4.396;2023-04-06T01:38:59;29.17;;;11.17;;
19828;SDS011;10075;50.924;4.396;2023-04-06T01:41:27;21.57;;;10.93;;
19828;SDS011;10075;50.924;4.396;2023-04-06T01:43:54;19.43;;;10.40;;
19828;SDS011;10075;50.924;4.396;2023-04-06T01:46:21;17.43;;;10.47;;
19828;SDS011;10075;50.924;4.396;2023-04-06T01:48:48;18.33;;;10.77;;
19828;SDS011;10075;50.924;4.396;2023-04-06T01:51:15;18.37;;;10.90;;
19828;SDS011;10075;50.924;4.396;2023-04-06T01:53:42;18.20;;;10.67;;
19828;SDS011;10075;50.924;4.396;2023-04-06T01:56:09;20.20;;;10.03;;
19828;SDS011;10075;50.924;4.396;2023-04-06T01:58:38;17.67;;;10.63;;
19828;SDS011;10075;50.924;4.396;2023-04-06T02:01:05;20.70;;;11.23;;
19828;SDS011;10075;50.924;4.396;2023-04-06T02:03:32;15.63;;;10.03;;
19828;SDS011;10075;50.924;4.396;2023-04-06T02:05:59;19.73;;;10.63;;
19828;SDS011;10075;50.924;4.396;2023-04-06T02:08:26;17.70;;;10.73;;
19828;SDS011;10075;50.924;4.396;2023-04-06T02:10:53;17.73;;;11.00;;
19828;SDS011;10075;50.924;4.396;2023-04-06T02:13:20;17.67;;;10.23;;
19828;SDS011;10075;50.924;4.396;2023-04-06T02:15:48;19.07;;;10.67;;
19828;SDS011;10075;50.924;4.396;2023-04-06T02:18:15;19.27;;;11.20;;
19828;SDS011;10075;50.924;4.396;2023-04-06T02:20:43;18.40;;;11.00;;
19828;SDS011;10075;50.924;4.396;2023-04-06T02:23:10;19.00;;;11.27;;
19828;SDS011;10075;50.924;4.396;2023-04-06T02:25:37;18.90;;;11.10;;
19828;SDS011;10075;50.924;4.396;2023-04-06T02:28:05;18.97;;;11.53;;
19828;SDS011;10075;50.924;4.396;2023-04-06T02:30:32;19.23;;;11.43;;
19828;SDS011;10075;50.924;4.396;2023-04-06T02:33:00;16.47;;;11.00;;
19828;SDS011;10075;50.924;4.396;2023-04-06T02:35:28;19.47;;;10.87;;
19828;SDS011;10075;50.924;4.396;2023-04-06T02:37:55;18.93;;;11.57;;
19828;SDS011;10075;50.924;4.396;2023-04-06T02:40:22;21.27;;;11.73;;
19828;SDS011;10075;50.924;4.396;2023-04-06T02:42:49;18.63;;;11.43;;
19828;SDS011;10075;50.924;4.396;2023-04-06T02:45:16;18.43;;;12.43;;
19828;SDS011;10075;50.924;4.396;2023-04-06T02:47:43;20.67;;;11.90;;
19828;SDS011;10075;50.924;4.396;2023-04-06T02:50:12;18.13;;;11.67;;
19828;SDS011;10075;50.924;4.396;2023-04-06T02:52:39;17.17;;;10.53;;
19828;SDS011;10075;50.924;4.396;2023-04-06T02:55:06;22.97;;;12.23;;
19828;SDS011;10075;50.924;4.396;2023-04-06T02:57:34;19.40;;;11.77;;
19828;SDS011;10075;50.924;4.396;2023-04-06T03:00:01;17.83;;;11.23;;
19828;SDS011;10075;50.924;4.396;2023-04-06T03:02:28;19.37;;;12.00;;
19828;SDS011;10075;50.924;4.396;2023-04-06T03:04:55;18.60;;;11.27;;
19828;SDS011;10075;50.924;4.396;2023-04-06T03:07:23;19.60;;;11.20;;
19828;SDS011;10075;50.924;4.396;2023-04-06T03:09:50;20.47;;;11.90;;
19828;SDS011;10075;50.924;4.396;2023-04-06T03:12:17;19.80;;;10.83;;
19828;SDS011;10075;50.924;4.396;2023-04-06T03:14:44;19.37;;;11.77;;
19828;SDS011;10075;50.924;4.396;2023-04-06T03:17:11;16.93;;;11.37;;
19828;SDS011;10075;50.924;4.396;2023-04-06T03:19:38;18.50;;;11.73;;
19828;SDS011;10075;50.924;4.396;2023-04-06T03:22:05;19.90;;;11.33;;
19828;SDS011;10075;50.924;4.396;2023-04-06T03:24:34;22.57;;;11.73;;
19828;SDS011;10075;50.924;4.396;2023-04-06T03:27:01;18.80;;;12.00;;
19828;SDS011;10075;50.924;4.396;2023-04-06T03:29:28;20.47;;;12.50;;
19828;SDS011;10075;50.924;4.396;2023-04-06T03:31:55;18.30;;;11.90;;
19828;SDS011;10075;50.924;4.396;2023-04-06T03:34:22;21.80;;;11.57;;
19828;SDS011;10075;50.924;4.396;2023-04-06T03:36:49;25.37;;;12.60;;
19828;SDS011;10075;50.924;4.396;2023-04-06T03:39:16;20.07;;;12.17;;
19828;SDS011;10075;50.924;4.396;2023-04-06T03:41:44;20.23;;;12.47;;
19828;SDS011;10075;50.924;4.396;2023-04-06T03:44:11;23.37;;;12.27;;
19828;SDS011;10075;50.924;4.396;2023-04-06T03:46:38;21.97;;;12.13;;
19828;SDS011;10075;50.924;4.396;2023-04-06T03:49:05;18.13;;;12.30;;
19828;SDS011;10075;50.924;4.396;2023-04-06T03:51:32;21.03;;;11.67;;
19828;SDS011;10075;50.924;4.396;2023-04-06T03:53:59;23.83;;;13.67;;
19828;SDS011;10075;50.924;4.396;2023-04-06T03:56:26;18.73;;;11.67;;
19828;SDS011;10075;50.924;4.396;2023-04-06T03:58:54;20.37;;;12.23;;
19828;SDS011;10075;50.924;4.396;2023-04-06T04:01:21;20.40;;;13.13;;
19828;SDS011;10075;50.924;4.396;2023-04-06T04:03:48;20.53;;;12.70;;
19828;SDS011;10075;50.924;4.396;2023-04-06T04:06:16;18.23;;;12.43;;
19828;SDS011;10075;50.924;4.396;2023-04-06T04:08:43;24.27;;;12.90;;
19828;SDS011;10075;50.924;4.396;2023-04-06T04:11:10;23.57;;;13.03;;
19828;SDS011;10075;50.924;4.396;2023-04-06T04:13:37;19.90;;;12.43;;
19828;SDS011;10075;50.924;4.396;2023-04-06T04:16:06;22.27;;;13.57;;
19828;SDS011;10075;50.924;4.396;2023-04-06T04:18:33;20.60;;;12.43;;
19828;SDS011;10075;50.924;4.396;2023-04-06T04:21:00;19.67;;;12.43;;
19828;SDS011;10075;50.924;4.396;2023-04-06T04:23:27;19.90;;;12.60;;
19828;SDS011;10075;50.924;4.396;2023-04-06T04:25:54;20.93;;;13.27;;
19828;SDS011;10075;50.924;4.396;2023-04-06T04:28:21;23.43;;;12.83;;
19828;SDS011;10075;50.924;4.396;2023-04-06T04:30:48;22.90;;;12.40;;
19828;SDS011;10075;50.924;4.396;2023-04-06T04:33:16;19.67;;;12.67;;
19828;SDS011;10075;50.924;4.396;2023-04-06T04:35:43;20.17;;;12.43;;
19828;SDS011;10075;50.924;4.396;2023-04-06T04:38:10;21.53;;;12.17;;
19828;SDS011;10075;50.924;4.396;2023-04-06T04:40:37;21.77;;;12.87;;
19828;SDS011;10075;50.924;4.396;2023-04-06T04:43:04;22.80;;;13.43;;
19828;SDS011;10075;50.924;4.396;2023-04-06T04:45:31;20.50;;;13.00;;
19828;SDS011;10075;50.924;4.396;2023-04-06T04:47:58;22.37;;;13.50;;
19828;SDS011;10075;50.924;4.396;2023-04-06T04:50:27;23.53;;;13.87;;
19828;SDS011;10075;50.924;4.396;2023-04-06T04:52:54;21.47;;;12.93;;
19828;SDS011;10075;50.924;4.396;2023-04-06T04:55:21;23.37;;;13.17;;
19828;SDS011;10075;50.924;4.396;2023-04-06T04:57:48;20.27;;;14.00;;
19828;SDS011;10075;50.924;4.396;2023-04-06T05:00:15;27.43;;;14.57;;
19828;SDS011;10075;50.924;4.396;2023-04-06T05:02:42;20.23;;;13.63;;
19828;SDS011;10075;50.924;4.396;2023-04-06T05:05:09;20.83;;;13.30;;
19828;SDS011;10075;50.924;4.396;2023-04-06T05:07:38;20.83;;;13.63;;
19828;SDS011;10075;50.924;4.396;2023-04-06T05:10:05;22.07;;;13.63;;
19828;SDS011;10075;50.924;4.396;2023-04-06T05:12:33;22.70;;;13.97;;
19828;SDS011;10075;50.924;4.396;2023-04-06T05:15:00;19.77;;;14.10;;
19828;SDS011;10075;50.924;4.396;2023-04-06T05:17:27;23.77;;;14.07;;
19828;SDS011;10075;50.924;4.396;2023-04-06T05:19:54;23.97;;;14.60;;
19828;SDS011;10075;50.924;4.396;2023-04-06T05:22:21;20.37;;;14.07;;
19828;SDS011;10075;50.924;4.396;2023-04-06T05:24:50;21.33;;;13.53;;
19828;SDS011;10075;50.924;4.396;2023-04-06T05:27:17;24.00;;;14.53;;
19828;SDS011;10075;50.924;4.396;2023-04-06T05:29:44;24.43;;;15.37;;
19828;SDS011;10075;50.924;4.396;2023-04-06T05:32:11;20.47;;;14.23;;
19828;SDS011;10075;50.924;4.396;2023-04-06T05:34:38;22.47;;;14.60;;
19828;SDS011;10075;50.924;4.396;2023-04-06T05:37:05;21.90;;;14.70;;
19828;SDS011;10075;50.924;4.396;2023-04-06T05:39:32;23.30;;;13.80;;
19828;SDS011;10075;50.924;4.396;2023-04-06T05:42:03;24.97;;;15.70;;
19828;SDS011;10075;50.924;4.396;2023-04-06T05:44:31;22.40;;;15.07;;
19828;SDS011;10075;50.924;4.396;2023-04-06T05:46:58;27.67;;;15.30;;
19828;SDS011;10075;50.924;4.396;2023-04-06T05:49:25;27.87;;;14.57;;
19828;SDS011;10075;50.924;4.396;2023-04-06T05:51:52;24.97;;;15.47;;
19828;SDS011;10075;50.924;4.396;2023-04-06T05:54:19;20.80;;;14.75;;
19828;SDS011;10075;50.924;4.396;2023-04-06T05:56:46;22.87;;;14.87;;
19828;SDS011;10075;50.924;4.396;2023-04-06T05:59:14;24.77;;;15.20;;
19828;SDS011;10075;50.924;4.396;2023-04-06T06:01:42;29.03;;;15.70;;
19828;SDS011;10075;50.924;4.396;2023-04-06T06:04:08;23.87;;;15.70;;
19828;SDS011;10075;50.924;4.396;2023-04-06T06:06:36;23.70;;;15.37;;
19828;SDS011;10075;50.924;4.396;2023-04-06T06:09:03;23.77;;;15.17;;
19828;SDS011;10075;50.924;4.396;2023-04-06T06:11:30;25.43;;;16.07;;
19828;SDS011;10075;50.924;4.396;2023-04-06T06:13:58;22.87;;;14.97;;
19828;SDS011;10075;50.924;4.396;2023-04-06T06:16:26;25.70;;;15.40;;
19828;SDS011;10075;50.924;4.396;2023-04-06T06:18:53;23.00;;;15.33;;
19828;SDS011;10075;50.924;4.396;2023-04-06T06:21:20;23.07;;;15.10;;
19828;SDS011;10075;50.924;4.396;2023-04-06T06:23:47;22.60;;;15.00;;
19828;SDS011;10075;50.924;4.396;2023-04-06T06:26:15;27.30;;;15.90;;
19828;SDS011;10075;50.924;4.396;2023-04-06T06:28:42;23.93;;;15.57;;
19828;SDS011;10075;50.924;4.396;2023-04-06T06:31:09;21.67;;;15.27;;
19828;SDS011;10075;50.924;4.396;2023-04-06T06:33:38;24.67;;;15.03;;
19828;SDS011;10075;50.924;4.396;2023-04-06T06:36:05;24.90;;;15.80;;
19828;SDS011;10075;50.924;4.396;2023-04-06T06:38:33;22.67;;;14.77;;
19828;SDS011;10075;50.924;4.396;2023-04-06T06:41:00;26.67;;;15.10;;
19828;SDS011;10075;50.924;4.396;2023-04-06T06:43:27;23.63;;;15.60;;
19828;SDS011;10075;50.924;4.396;2023-04-06T06:45:54;22.17;;;15.03;;
19828;SDS011;10075;50.924;4.396;2023-04-06T06:48:21;26.53;;;16.50;;
19828;SDS011;10075;50.924;4.396;2023-04-06T06:50:49;28.93;;;15.73;;
19828;SDS011;10075;50.924;4.396;2023-04-06T06:53:16;23.57;;;15.10;;
19828;SDS011;10075;50.924;4.396;2023-04-06T06:55:43;24.13;;;14.27;;
19828;SDS011;10075;50.924;4.396;2023-04-06T06:58:10;24.27;;;14.57;;
19828;SDS011;10075;50.924;4.396;2023-04-06T07:00:37;23.47;;;14.97;;
19828;SDS011;10075;50.924;4.396;2023-04-06T07:03:04;22.10;;;15.83;;
19828;SDS011;10075;50.924;4.396;2023-04-06T07:05:31;28.83;;;16.13;;
19828;SDS011;10075;50.924;4.396;2023-04-06T07:08:00;27.90;;;17.87;;
19828;SDS011;10075;50.924;4.396;2023-04-06T07:10:27;24.87;;;16.00;;
19828;SDS011;10075;50.924;4.396;2023-04-06T07:12:54;26.67;;;15.77;;
19828;SDS011;10075;50.924;4.396;2023-04-06T07:15:21;24.30;;;16.37;;
19828;SDS011;10075;50.924;4.396;2023-04-06T07:17:48;26.03;;;16.20;;
19828;SDS011;10075;50.924;4.396;2023-04-06T07:20:17;26.77;;;16.73;;
19828;SDS011;10075;50.924;4.396;2023-04-06T07:22:44;23.37;;;16.30;;
19828;SDS011;10075;50.924;4.396;2023-04-06T07:25:12;30.77;;;17.20;;
19828;SDS011;10075;50.924;4.396;2023-04-06T07:27:40;23.77;;;15.73;;
19828;SDS011;10075;50.924;4.396;2023-04-06T07:30:07;25.98;;;16.00;;
19828;SDS011;10075;50.924;4.396;2023-04-06T07:32:34;27.33;;;16.77;;
19828;SDS011;10075;50.924;4.396;2023-04-06T07:35:03;23.57;;;16.03;;
19828;SDS011;10075;50.924;4.396;2023-04-06T07:37:30;28.20;;;16.87;;
19828;SDS011;10075;50.924;4.396;2023-04-06T07:39:57;26.13;;;15.93;;
19828;SDS011;10075;50.924;4.396;2023-04-06T07:42:26;23.00;;;14.47;;
19828;SDS011;10075;50.924;4.396;2023-04-06T07:44:53;17.27;;;13.43;;
19828;SDS011;10075;50.924;4.396;2023-04-06T07:47:20;21.60;;;13.60;;
19828;SDS011;10075;50.924;4.396;2023-04-06T07:49:47;21.20;;;12.53;;
19828;SDS011;10075;50.924;4.396;2023-04-06T07:52:14;21.57;;;12.27;;
19828;SDS011;10075;50.924;4.396;2023-04-06T07:54:41;15.73;;;10.43;;
19828;SDS011;10075;50.924;4.396;2023-04-06T07:57:09;21.73;;;10.90;;
19828;SDS011;10075;50.924;4.396;2023-04-06T07:59:37;15.10;;;9.70;;
19828;SDS011;10075;50.924;4.396;2023-04-06T08:02:04;15.03;;;8.90;;
19828;SDS011;10075;50.924;4.396;2023-04-06T08:04:31;18.27;;;10.17;;
19828;SDS011;10075;50.924;4.396;2023-04-06T08:06:58;16.70;;;9.40;;
19828;SDS011;10075;50.924;4.396;2023-04-06T08:09:25;16.20;;;7.43;;
19828;SDS011;10075;50.924;4.396;2023-04-06T08:11:53;12.23;;;7.67;;
19828;SDS011;10075;50.924;4.396;2023-04-06T08:14:19;10.83;;;7.10;;
19828;SDS011;10075;50.924;4.396;2023-04-06T08:16:48;14.53;;;7.63;;
19828;SDS011;10075;50.924;4.396;2023-04-06T08:19:15;11.07;;;6.70;;
19828;SDS011;10075;50.924;4.396;2023-04-06T08:21:44;12.83;;;7.50;;
19828;SDS011;10075;50.924;4.396;2023-04-06T08:24:11;9.97;;;7.17;;
19828;SDS011;10075;50.924;4.396;2023-04-06T08:26:38;11.18;;;6.93;;
19828;SDS011;10075;50.924;4.396;2023-04-06T08:29:05;11.30;;;7.07;;
19828;SDS011;10075;50.924;4.396;2023-04-06T08:31:32;11.63;;;6.90;;
19828;SDS011;10075;50.924;4.396;2023-04-06T08:34:01;10.50;;;6.47;;
19828;SDS011;10075;50.924;4.396;2023-04-06T08:36:29;11.73;;;7.33;;
19828;SDS011;10075;50.924;4.396;2023-04-06T08:38:57;10.73;;;6.77;;
19828;SDS011;10075;50.924;4.396;2023-04-06T08:41:25;9.55;;;6.70;;
19828;SDS011;10075;50.924;4.396;2023-04-06T08:43:54;10.90;;;6.10;;
19828;SDS011;10075;50.924;4.396;2023-04-06T08:46:24;9.70;;;6.70;;
19828;SDS011;10075;50.924;4.396;2023-04-06T08:48:54;10.60;;;7.35;;
19828;SDS011;10075;50.924;4.396;2023-04-06T08:51:24;13.83;;;8.00;;
19828;SDS011;10075;50.924;4.396;2023-04-06T08:53:52;15.50;;;10.03;;
19828;SDS011;10075;50.924;4.396;2023-04-06T08:56:20;12.90;;;8.37;;
19828;SDS011;10075;50.924;4.396;2023-04-06T08:58:48;14.67;;;8.10;;
19828;SDS011;10075;50.924;4.396;2023-04-06T09:01:17;15.60;;;9.20;;
19828;SDS011;10075;50.924;4.396;2023-04-06T09:03:46;13.73;;;8.20;;
19828;SDS011;10075;50.924;4.396;2023-04-06T09:06:15;12.27;;;8.30;;
19828;SDS011;10075;50.924;4.396;2023-04-06T09:08:44;13.80;;;8.17;;
19828;SDS011;10075;50.924;4.396;2023-04-06T09:11:11;15.25;;;7.97;;
19828;SDS011;10075;50.924;4.396;2023-04-06T09:13:46;13.17;;;7.33;;
19828;SDS011;10075;50.924;4.396;2023-04-06T09:16:14;12.18;;;8.68;;
19828;SDS011;10075;50.924;4.396;2023-04-06T09:18:41;13.30;;;8.30;;
19828;SDS011;10075;50.924;4.396;2023-04-06T09:21:08;12.67;;;7.77;;
19828;SDS011;10075;50.924;4.396;2023-04-06T09:23:36;14.13;;;8.27;;
19828;SDS011;10075;50.924;4.396;2023-04-06T09:26:09;14.55;;;8.48;;
19828;SDS011;10075;50.924;4.396;2023-04-06T09:28:41;15.63;;;8.27;;
19828;SDS011;10075;50.924;4.396;2023-04-06T09:31:12;15.17;;;8.13;;
19828;SDS011;10075;50.924;4.396;2023-04-06T09:33:40;15.63;;;8.93;;
19828;SDS011;10075;50.924;4.396;2023-04-06T09:36:11;12.25;;;7.13;;
19828;SDS011;10075;50.924;4.396;2023-04-06T09:38:51;13.15;;;8.52;;
19828;SDS011;10075;50.924;4.396;2023-04-06T09:41:24;12.83;;;7.50;;
19828;SDS011;10075;50.924;4.396;2023-04-06T09:44:01;12.00;;;8.40;;
19828;SDS011;10075;50.924;4.396;2023-04-06T09:46:30;13.53;;;7.67;;
19828;SDS011;10075;50.924;4.396;2023-04-06T09:48:58;13.00;;;8.13;;
19828;SDS011;10075;50.924;4.396;2023-04-06T09:51:26;10.23;;;7.90;;
19828;SDS011;10075;50.924;4.396;2023-04-06T09:53:57;14.77;;;7.77;;
19828;SDS011;10075;50.924;4.396;2023-04-06T09:56:30;14.20;;;8.50;;
19828;SDS011;10075;50.924;4.396;2023-04-06T09:59:05;16.57;;;8.80;;
19828;SDS011;10075;50.924;4.396;2023-04-06T10:01:38;10.73;;;6.37;;
19828;SDS011;10075;50.924;4.396;2023-04-06T10:04:13;11.23;;;7.27;;
19828;SDS011;10075;50.924;4.396;2023-04-06T10:06:51;13.07;;;7.87;;
19828;SDS011;10075;50.924;4.396;2023-04-06T10:09:18;12.73;;;7.93;;
19828;SDS011;10075;50.924;4.396;2023-04-06T10:11:50;11.68;;;7.80;;
19828;SDS011;10075;50.924;4.396;2023-04-06T10:14:18;12.03;;;7.27;;
19828;SDS011;10075;50.924;4.396;2023-04-06T10:16:45;12.23;;;8.73;;
19828;SDS011;10075;50.924;4.396;2023-04-06T10:19:16;12.10;;;8.30;;
19828;SDS011;10075;50.924;4.396;2023-04-06T10:21:47;13.10;;;8.93;;
19828;SDS011;10075;50.924;4.396;2023-04-06T10:24:19;14.23;;;9.70;;
19828;SDS011;10075;50.924;4.396;2023-04-06T10:26:57;10.90;;;7.80;;
19828;SDS011;10075;50.924;4.396;2023-04-06T10:29:25;12.13;;;8.37;;
19828;SDS011;10075;50.924;4.396;2023-04-06T10:31:52;16.47;;;9.07;;
19828;SDS011;10075;50.924;4.396;2023-04-06T10:34:20;13.47;;;8.33;;
19828;SDS011;10075;50.924;4.396;2023-04-06T10:36:47;14.55;;;8.98;;
19828;SDS011;10075;50.924;4.396;2023-04-06T10:39:14;15.90;;;8.80;;
19828;SDS011;10075;50.924;4.396;2023-04-06T10:41:52;12.17;;;9.00;;
19828;SDS011;10075;50.924;4.396;2023-04-06T10:44:21;12.75;;;9.00;;
19828;SDS011;10075;50.924;4.396;2023-04-06T10:46:52;13.57;;;8.40;;
19828;SDS011;10075;50.924;4.396;2023-04-06T10:49:19;12.60;;;8.37;;
19828;SDS011;10075;50.924;4.396;2023-04-06T10:51:50;12.80;;;8.65;;
19828;SDS011;10075;50.924;4.396;2023-04-06T10:54:18;10.45;;;8.15;;
19828;SDS011;10075;50.924;4.396;2023-04-06T10:56:46;13.87;;;9.50;;
19828;SDS011;10075;50.924;4.396;2023-04-06T10:59:14;11.75;;;8.43;;
19828;SDS011;10075;50.924;4.396;2023-04-06T11:01:47;15.52;;;8.32;;
19828;SDS011;10075;50.924;4.396;2023-04-06T11:04:18;15.32;;;9.18;;
19828;SDS011;10075;50.924;4.396;2023-04-06T11:06:46;13.80;;;9.03;;
19828;SDS011;10075;50.924;4.396;2023-04-06T11:09:22;11.83;;;8.40;;
19828;SDS011;10075;50.924;4.396;2023-04-06T11:11:51;12.30;;;8.55;;
19828;SDS011;10075;50.924;4.396;2023-04-06T11:14:18;16.42;;;9.88;;
19828;SDS011;10075;50.924;4.396;2023-04-06T11:16:46;12.70;;;8.83;;
19828;SDS011;10075;50.924;4.396;2023-04-06T11:19:15;13.63;;;9.05;;
19828;SDS011;10075;50.924;4.396;2023-04-06T11:21:43;14.32;;;8.75;;
19828;SDS011;10075;50.924;4.396;2023-04-06T11:24:13;16.52;;;9.18;;
19828;SDS011;10075;50.924;4.396;2023-04-06T11:26:42;13.47;;;9.17;;
19828;SDS011;10075;50.924;4.396;2023-04-06T11:29:11;14.40;;;10.32;;
19828;SDS011;10075;50.924;4.396;2023-04-06T11:31:39;12.10;;;8.90;;
19828;SDS011;10075;50.924;4.396;2023-04-06T11:34:15;11.85;;;7.93;;
19828;SDS011;10075;50.924;4.396;2023-04-06T11:36:43;14.43;;;8.50;;
19828;SDS011;10075;50.924;4.396;2023-04-06T11:39:13;14.27;;;8.98;;
19828;SDS011;10075;50.924;4.396;2023-04-06T11:41:47;14.82;;;9.65;;
19828;SDS011;10075;50.924;4.396;2023-04-06T11:44:14;13.50;;;9.00;;
19828;SDS011;10075;50.924;4.396;2023-04-06T11:46:50;13.93;;;9.27;;
19828;SDS011;10075;50.924;4.396;2023-04-06T11:49:19;14.32;;;9.93;;
19828;SDS011;10075;50.924;4.396;2023-04-06T11:51:46;13.88;;;9.65;;
19828;SDS011;10075;50.924;4.396;2023-04-06T11:54:13;13.10;;;8.98;;
19828;SDS011;10075;50.924;4.396;2023-04-06T11:56:42;11.68;;;8.40;;
19828;SDS011;10075;50.924;4.396;2023-04-06T11:59:12;15.82;;;9.68;;
19828;SDS011;10075;50.924;4.396;2023-04-06T12:01:44;16.02;;;9.18;;
19828;SDS011;10075;50.924;4.396;2023-04-06T12:04:11;14.65;;;9.68;;
19828;SDS011;10075;50.924;4.396;2023-04-06T12:06:39;13.23;;;9.73;;
19828;SDS011;10075;50.924;4.396;2023-04-06T12:09:06;14.25;;;8.45;;
19828;SDS011;10075;50.924;4.396;2023-04-06T12:11:33;15.20;;;9.45;;
19828;SDS011;10075;50.924;4.396;2023-04-06T12:14:00;12.85;;;9.80;;
19828;SDS011;10075;50.924;4.396;2023-04-06T12:16:29;13.18;;;9.50;;
19828;SDS011;10075;50.924;4.396;2023-04-06T12:18:57;12.73;;;8.95;;
19828;SDS011;10075;50.924;4.396;2023-04-06T12:21:24;13.52;;;9.93;;
19828;SDS011;10075;50.924;4.396;2023-04-06T12:23:52;12.40;;;7.80;;
19828;SDS011;10075;50.924;4.396;2023-04-06T12:26:19;14.00;;;8.93;;
19828;SDS011;10075;50.924;4.396;2023-04-06T12:28:46;10.88;;;8.30;;
19828;SDS011;10075;50.924;4.396;2023-04-06T12:31:14;14.18;;;9.52;;
19828;SDS011;10075;50.924;4.396;2023-04-06T12:33:41;13.57;;;8.45;;
19828;SDS011;10075;50.924;4.396;2023-04-06T12:36:13;13.73;;;9.52;;
19828;SDS011;10075;50.924;4.396;2023-04-06T12:38:43;13.07;;;10.20;;
19828;SDS011;10075;50.924;4.396;2023-04-06T12:41:12;13.85;;;9.13;;
19828;SDS011;10075;50.924;4.396;2023-04-06T12:43:40;15.23;;;10.00;;
19828;SDS011;10075;50.924;4.396;2023-04-06T12:46:07;12.32;;;8.68;;
19828;SDS011;10075;50.924;4.396;2023-04-06T12:48:35;12.77;;;9.30;;
19828;SDS011;10075;50.924;4.396;2023-04-06T12:51:02;11.48;;;9.27;;
19828;SDS011;10075;50.924;4.396;2023-04-06T12:53:30;10.68;;;8.57;;
19828;SDS011;10075;50.924;4.396;2023-04-06T12:55:58;11.03;;;8.57;;
19828;SDS011;10075;50.924;4.396;2023-04-06T12:58:27;14.00;;;8.55;;
19828;SDS011;10075;50.924;4.396;2023-04-06T13:00:55;15.23;;;9.23;;
19828;SDS011;10075;50.924;4.396;2023-04-06T13:03:27;15.53;;;10.40;;
19828;SDS011;10075;50.924;4.396;2023-04-06T13:05:55;13.95;;;10.40;;
19828;SDS011;10075;50.924;4.396;2023-04-06T13:08:22;14.40;;;10.00;;
19828;SDS011;10075;50.924;4.396;2023-04-06T13:10:50;13.60;;;9.32;;
19828;SDS011;10075;50.924;4.396;2023-04-06T13:13:21;13.10;;;10.60;;
19828;SDS011;10075;50.924;4.396;2023-04-06T13:15:50;17.10;;;11.43;;
19828;SDS011;10075;50.924;4.396;2023-04-06T13:18:17;14.88;;;10.07;;
19828;SDS011;10075;50.924;4.396;2023-04-06T13:20:46;14.55;;;10.00;;
19828;SDS011;10075;50.924;4.396;2023-04-06T13:23:14;11.85;;;9.60;;
19828;SDS011;10075;50.924;4.396;2023-04-06T13:25:41;15.25;;;10.63;;
19828;SDS011;10075;50.924;4.396;2023-04-06T13:28:08;15.27;;;10.77;;
19828;SDS011;10075;50.924;4.396;2023-04-06T13:30:36;16.27;;;11.35;;
19828;SDS011;10075;50.924;4.396;2023-04-06T13:33:04;16.98;;;11.73;;
19828;SDS011;10075;50.924;4.396;2023-04-06T13:35:32;16.63;;;11.90;;
19828;SDS011;10075;50.924;4.396;2023-04-06T13:38:00;13.82;;;9.57;;
19828;SDS011;10075;50.924;4.396;2023-04-06T13:40:27;15.30;;;9.67;;
19828;SDS011;10075;50.924;4.396;2023-04-06T13:42:54;14.43;;;10.45;;
19828;SDS011;10075;50.924;4.396;2023-04-06T13:45:21;14.13;;;10.52;;
19828;SDS011;10075;50.924;4.396;2023-04-06T13:47:48;15.43;;;11.77;;
19828;SDS011;10075;50.924;4.396;2023-04-06T13:50:17;13.68;;;10.88;;
19828;SDS011;10075;50.924;4.396;2023-04-06T13:52:44;15.45;;;11.82;;
19828;SDS011;10075;50.924;4.396;2023-04-06T13:55:11;16.70;;;11.05;;
19828;SDS011;10075;50.924;4.396;2023-04-06T13:57:38;13.50;;;10.10;;
19828;SDS011;10075;50.924;4.396;2023-04-06T14:00:05;15.02;;;11.52;;
19828;SDS011;10075;50.924;4.396;2023-04-06T14:02:34;15.20;;;10.40;;
19828;SDS011;10075;50.924;4.396;2023-04-06T14:05:01;15.63;;;11.10;;
19828;SDS011;10075;50.924;4.396;2023-04-06T14:07:29;14.07;;;10.00;;
19828;SDS011;10075;50.924;4.396;2023-04-06T14:09:56;13.30;;;10.70;;
19828;SDS011;10075;50.924;4.396;2023-04-06T14:12:23;13.90;;;10.48;;
19828;SDS011;10075;50.924;4.396;2023-04-06T14:14:52;14.80;;;10.60;;
19828;SDS011;10075;50.924;4.396;2023-04-06T14:17:19;15.18;;;10.43;;
19828;SDS011;10075;50.924;4.396;2023-04-06T14:19:46;13.30;;;10.10;;
19828;SDS011;10075;50.924;4.396;2023-04-06T14:22:13;13.70;;;10.60;;
19828;SDS011;10075;50.924;4.396;2023-04-06T14:24:42;14.05;;;10.90;;
19828;SDS011;10075;50.924;4.396;2023-04-06T14:27:09;17.60;;;11.63;;
19828;SDS011;10075;50.924;4.396;2023-04-06T14:29:36;18.75;;;12.98;;